createdAt,value
2022-08-18T00:02:21.233Z,99405.16
2022-08-18T00:04:53.504Z,99406.81
2022-08-18T00:07:32.172Z,99418.59
2022-08-18T00:10:01.127Z,99428.13
2022-08-18T00:12:34.740Z,99439.59
2022-08-18T00:15:04.665Z,99442.34
2022-08-18T00:17:34.071Z,99433.09
2022-08-18T00:20:01.199Z,99423.59
2022-08-18T00:22:28.498Z,99425.50
2022-08-18T00:24:57.659Z,99427.16
2022-08-18T00:27:29.179Z,99429.34
2022-08-18T00:30:00.931Z,99427.22
2022-08-18T00:32:36.678Z,99426.44
2022-08-18T00:35:36.039Z,99425.06
2022-08-18T00:38:06.319Z,99431.38
2022-08-18T00:40:44.830Z,99419.13
2022-08-18T00:43:23.377Z,99422.13
2022-08-18T00:45:50.616Z,99416.69
2022-08-18T00:48:18.828Z,99427.34
2022-08-18T00:50:54.332Z,99429.50
2022-08-18T00:53:29.401Z,99443.97
2022-08-18T00:56:08.633Z,99450.75
2022-08-18T00:58:47.261Z,99455.69
2022-08-18T01:01:16.828Z,99457.59
2022-08-18T01:03:52.016Z,99457.84
2022-08-18T01:06:40.789Z,99454.56
2022-08-18T01:09:09.477Z,99450.78
2022-08-18T01:11:39.184Z,99453.25
2022-08-18T01:14:09.621Z,99449.19
2022-08-18T01:16:57.519Z,99449.78
2022-08-18T01:19:45.987Z,99446.53
2022-08-18T01:22:49.452Z,99449.28
2022-08-18T01:25:39.856Z,99453.09
2022-08-18T01:28:07.730Z,99451.19
2022-08-18T01:30:51.264Z,99438.13
2022-08-18T01:33:19.110Z,99438.13
2022-08-18T01:35:49.332Z,99433.53
2022-08-18T01:38:20.925Z,99445.78
2022-08-18T01:41:24.378Z,99436.31
2022-08-18T01:43:36.646Z,99432.75
2022-08-18T01:46:04.278Z,99438.47
2022-08-18T01:48:36.549Z,99424.06
2022-08-18T01:51:08.212Z,99430.59
2022-08-18T01:53:37.955Z,99421.63
2022-08-18T01:56:06.346Z,99423.25
2022-08-18T01:58:35.569Z,99421.63
2022-08-18T02:01:03.922Z,99419.72
2022-08-18T02:03:46.767Z,99424.06
2022-08-18T02:06:18.508Z,99414.59
2022-08-18T02:08:59.471Z,99425.16
2022-08-18T02:11:26.659Z,99424.09
2022-08-18T02:13:53.625Z,99412.41
2022-08-18T02:16:20.652Z,99412.94
2022-08-18T02:18:48.881Z,99407.50
2022-08-18T02:21:20.039Z,99412.97
2022-08-18T02:23:53.214Z,99404.25
2022-08-18T02:26:22.162Z,99397.22
2022-08-18T02:28:49.557Z,99407.25
2022-08-18T02:31:21.232Z,99401.53
2022-08-18T02:33:51.933Z,99393.44
2022-08-18T02:36:21.459Z,99394.50
2022-08-18T02:38:56.787Z,99397.78
2022-08-18T02:41:29.253Z,99391.25
2022-08-18T02:43:57.883Z,99388.53
2022-08-18T02:46:29.331Z,99389.63
2022-08-18T02:48:57.765Z,99391.25
2022-08-18T02:51:25.688Z,99384.19
2022-08-18T02:53:54.243Z,99377.69
2022-08-18T02:56:32.918Z,99378.25
2022-08-18T02:59:14.829Z,99368.72
2022-08-18T03:01:46.047Z,99365.19
2022-08-18T03:04:16.444Z,99364.13
2022-08-18T03:06:45.396Z,99355.97
2022-08-18T03:09:16.356Z,99348.38
2022-08-18T03:11:44.530Z,99348.09
2022-08-18T03:14:13.108Z,99352.72
2022-08-18T03:16:52.733Z,99357.59
2022-08-18T03:19:28.132Z,99352.16
2022-08-18T03:21:58.212Z,99347.53
2022-08-18T03:24:31.434Z,99353.78
2022-08-18T03:26:59.829Z,99350.53
2022-08-18T03:29:32.066Z,99344.03
2022-08-18T03:32:01.723Z,99349.19
2022-08-18T03:34:29.748Z,99340.50
2022-08-18T03:36:56.881Z,99340.25
2022-08-18T03:39:25.030Z,99342.16
2022-08-18T03:42:01.088Z,99346.19
2022-08-18T03:44:33.217Z,99337.81
2022-08-18T03:47:03.103Z,99339.16
2022-08-18T03:49:33.381Z,99343.22
2022-08-18T03:52:00.838Z,99349.22
2022-08-18T03:54:29.424Z,99350.56
2022-08-18T03:56:56.438Z,99352.22
2022-08-18T03:59:26.104Z,99354.63
2022-08-18T04:01:55.288Z,99347.88
2022-08-18T04:04:27.260Z,99340.25
2022-08-18T04:07:07.136Z,99338.63
2022-08-18T04:09:36.102Z,99341.06
2022-08-18T04:12:16.236Z,99342.16
2022-08-18T04:14:48.048Z,99340.50
2022-08-18T04:17:16.873Z,99340.50
2022-08-18T04:19:43.968Z,99339.69
2022-08-18T04:22:11.249Z,99345.09
2022-08-18T04:24:45.390Z,99338.06
2022-08-18T04:27:12.757Z,99340.75
2022-08-18T04:29:39.804Z,99347.28
2022-08-18T04:32:07.019Z,99342.94
2022-08-18T04:34:34.884Z,99349.44
2022-08-18T04:37:02.420Z,99347.81
2022-08-18T04:39:30.544Z,99341.56
2022-08-18T04:41:59.168Z,99351.59
2022-08-18T04:44:26.445Z,99351.59
2022-08-18T04:46:54.370Z,99351.59
2022-08-18T04:49:26.248Z,99349.97
2022-08-18T04:52:36.137Z,99355.41
2022-08-18T04:55:01.728Z,99363.53
2022-08-18T04:57:33.625Z,99369.78
2022-08-18T05:00:01.211Z,99371.69
2022-08-18T05:02:28.365Z,99373.31
2022-08-18T05:04:55.412Z,99381.44
2022-08-18T05:07:23.034Z,99378.72
2022-08-18T05:09:54.032Z,99384.16
2022-08-18T05:12:22.817Z,99390.41
2022-08-18T05:14:56.727Z,99386.06
2022-08-18T05:17:29.090Z,99385.25
2022-08-18T05:19:59.923Z,99401.25
2022-08-18T05:22:30.383Z,99395.00
2022-08-18T05:24:58.175Z,99390.41
2022-08-18T05:27:25.180Z,99396.63
2022-08-18T05:29:52.149Z,99400.72
2022-08-18T05:32:38.334Z,99400.97
2022-08-18T05:35:15.067Z,99408.59
2022-08-18T05:38:22.144Z,99395.59
2022-08-18T05:41:14.341Z,99392.03
2022-08-18T05:43:51.303Z,99391.50
2022-08-18T05:46:24.676Z,99392.31
2022-08-18T05:48:51.731Z,99384.16
2022-08-18T05:51:41.276Z,99368.97
2022-08-18T05:54:28.433Z,99367.34
2022-08-18T05:57:02.271Z,99353.53
2022-08-18T05:59:37.146Z,99358.13
2022-08-18T06:02:33.304Z,99356.75
2022-08-18T06:05:06.071Z,99356.53
2022-08-18T06:07:53.120Z,99363.84
2022-08-18T06:10:21.009Z,99365.47
2022-08-18T06:12:59.857Z,99368.75
2022-08-18T06:16:09.497Z,99364.13
2022-08-18T06:19:16.021Z,99372.00
2022-08-18T06:21:59.375Z,99372.81
2022-08-18T06:24:56.177Z,99377.72
2022-08-18T06:27:31.036Z,99382.84
2022-08-18T06:30:17.526Z,99383.38
2022-08-18T06:33:09.247Z,99391.81
2022-08-18T06:35:51.947Z,99392.63
2022-08-18T06:38:40.167Z,99385.84
2022-08-18T06:41:40.960Z,99389.66
2022-08-18T06:44:44.155Z,99397.50
2022-08-18T06:47:29.464Z,99403.75
2022-08-18T06:50:26.100Z,99415.41
2022-08-18T06:52:56.794Z,99408.38
2022-08-18T06:55:38.863Z,99411.91
2022-08-18T06:58:27.689Z,99414.63
2022-08-18T07:00:59.017Z,99424.66
2022-08-18T07:04:04.432Z,99426.00
2022-08-18T07:06:32.015Z,99419.50
2022-08-18T07:09:20.683Z,99424.09
2022-08-18T07:12:05.432Z,99423.03
2022-08-18T07:14:57.992Z,99409.19
2022-08-18T07:17:43.699Z,99402.66
2022-08-18T07:20:25.497Z,99398.34
2022-08-18T07:23:08.298Z,99398.88
2022-08-18T07:25:43.003Z,99391.25
2022-08-18T07:28:37.314Z,99394.25
2022-08-18T07:31:36.198Z,99407.56
2022-08-18T07:34:25.661Z,99407.81
2022-08-18T07:37:14.472Z,99418.94
2022-08-18T07:40:07.351Z,99414.09
2022-08-18T07:43:01.268Z,99421.94
2022-08-18T07:45:45.162Z,99424.38
2022-08-18T07:48:38.734Z,99420.03
2022-08-18T07:51:22.299Z,99415.16
2022-08-18T07:54:48.941Z,99417.31
2022-08-18T07:57:43.632Z,99409.72
2022-08-18T08:00:58.716Z,99411.34
2022-08-18T08:03:31.665Z,99415.41
2022-08-18T08:06:03.078Z,99417.03
2022-08-18T08:08:42.009Z,99423.81
2022-08-18T08:11:53.051Z,99422.19
2022-08-18T08:14:45.768Z,99433.88
2022-08-18T08:17:53.996Z,99429.81
2022-08-18T08:20:52.621Z,99429.25
2022-08-18T08:23:52.136Z,99426.28
2022-08-18T08:26:51.878Z,99427.63
2022-08-18T08:29:54.594Z,99427.91
2022-08-18T08:32:32.568Z,99427.09
2022-08-18T08:35:47.353Z,99431.72
2022-08-18T08:38:42.752Z,99433.63
2022-08-18T08:41:28.271Z,99437.44
2022-08-18T08:44:58.205Z,99446.38
2022-08-18T08:47:32.994Z,99453.72
2022-08-18T08:50:11.523Z,99463.50
2022-08-18T08:52:56.870Z,99467.28
2022-08-18T08:55:31.134Z,99475.44
2022-08-18T08:58:26.452Z,99487.09
2022-08-18T09:00:55.049Z,99487.91
2022-08-18T09:03:52.472Z,99490.09
2022-08-18T09:06:32.608Z,99497.69
2022-08-18T09:09:49.884Z,99486.81
2022-08-18T09:12:51.618Z,99492.22
2022-08-18T09:16:27.666Z,99485.44
2022-08-18T09:19:31.199Z,99481.63
2022-08-18T09:22:16.005Z,99487.34
2022-08-18T09:24:51.112Z,99479.75
2022-08-18T09:28:07.107Z,99478.66
2022-08-18T09:30:43.616Z,99468.09
2022-08-18T09:33:34.180Z,99468.66
2022-08-18T09:36:25.937Z,99450.16
2022-08-18T09:39:23.200Z,99459.94
2022-08-18T09:41:58.229Z,99450.47
2022-08-18T09:45:01.476Z,99444.44
2022-08-18T09:47:30.346Z,99442.22
2022-08-18T09:50:06.544Z,99438.94
2022-08-18T09:52:33.369Z,99433.47
2022-08-18T09:55:27.061Z,99433.91
2022-08-18T09:58:17.939Z,99438.75
2022-08-18T10:00:45.419Z,99438.16
2022-08-18T10:03:26.044Z,99448.19
2022-08-18T10:06:12.901Z,99447.59
2022-08-18T10:09:17.670Z,99442.66
2022-08-18T10:12:48.936Z,99431.63
2022-08-18T10:15:45.000Z,99421.47
2022-08-18T10:18:53.884Z,99440.13
2022-08-18T10:24:38.085Z,99441.88
2022-08-18T10:27:53.974Z,99444.56
2022-08-18T10:30:34.543Z,99444.81
2022-08-18T10:33:18.381Z,99443.41
2022-08-18T10:35:59.720Z,99428.94
2022-08-18T10:38:49.395Z,99425.91
2022-08-18T10:41:31.972Z,99430.75
2022-08-18T10:44:20.927Z,99418.50
2022-08-18T10:46:49.987Z,99403.47
2022-08-18T10:49:26.382Z,99397.97
2022-08-18T10:52:07.777Z,99393.53
2022-08-18T10:55:10.190Z,99392.38
2022-08-18T10:58:31.191Z,99376.00
2022-08-18T11:01:32.911Z,99374.88
2022-08-18T11:04:34.160Z,99374.53
2022-08-18T11:07:09.689Z,99364.88
2022-08-18T11:13:13.461Z,99347.97
2022-08-18T11:16:10.288Z,99358.19
2022-08-18T11:18:58.240Z,99351.03
2022-08-18T11:21:42.727Z,99357.22
2022-08-18T11:24:17.678Z,99352.31
2022-08-18T11:26:52.903Z,99362.69
2022-08-18T11:29:28.707Z,99369.75
2022-08-18T11:32:03.921Z,99368.75
2022-08-18T11:34:39.202Z,99374.78
2022-08-18T11:37:49.507Z,99387.72
2022-08-18T11:41:08.898Z,99387.97
2022-08-18T11:43:40.816Z,99378.25
2022-08-18T11:46:24.077Z,99381.56
2022-08-18T11:48:56.971Z,99386.53
2022-08-18T11:51:32.197Z,99372.94
2022-08-18T11:54:04.839Z,99369.91
2022-08-18T11:56:36.009Z,99361.53
2022-08-18T11:59:52.631Z,99363.13
2022-08-18T12:02:18.693Z,99362.31
2022-08-18T12:04:52.919Z,99353.03
2022-08-18T12:07:35.724Z,99342.13
2022-08-18T12:10:30.055Z,99346.97
2022-08-18T12:13:00.705Z,99337.09
2022-08-18T12:18:28.398Z,99341.38
2022-08-18T12:20:59.380Z,99343.81
2022-08-18T12:23:38.509Z,99334.75
2022-08-18T12:26:06.033Z,99332.16
2022-08-18T12:28:53.097Z,99329.66
2022-08-18T12:31:20.141Z,99327.94
2022-08-18T12:34:00.693Z,99307.59
2022-08-18T12:36:43.650Z,99307.34
2022-08-18T12:39:10.704Z,99310.34
2022-08-18T12:41:37.916Z,99295.59
2022-08-18T12:44:05.052Z,99299.63
2022-08-18T12:46:42.760Z,99292.19
2022-08-18T12:49:19.286Z,99286.91
2022-08-18T12:51:50.141Z,99292.56
2022-08-18T12:54:18.640Z,99284.03
2022-08-18T12:56:51.168Z,99277.75
2022-08-18T12:59:18.861Z,99281.56
2022-08-18T13:01:46.740Z,99275.03
2022-08-18T13:04:15.592Z,99286.22
2022-08-18T13:07:00.217Z,99281.81
2022-08-18T13:09:35.170Z,99280.66
2022-08-18T13:12:17.171Z,99275.41
2022-08-18T13:14:45.710Z,99270.66
2022-08-18T13:17:32.338Z,99263.78
2022-08-18T13:20:14.858Z,99264.16
2022-08-18T13:22:42.371Z,99271.16
2022-08-18T13:25:32.256Z,99266.22
2022-08-18T13:28:01.728Z,99259.59
2022-08-18T13:30:31.409Z,99255.59
2022-08-18T13:33:05.975Z,99253.19
2022-08-18T13:35:52.329Z,99248.19
2022-08-18T13:38:25.969Z,99245.28
2022-08-18T13:40:58.151Z,99249.94
2022-08-18T13:43:32.321Z,99245.09
2022-08-18T13:46:02.087Z,99244.13
2022-08-18T13:48:30.452Z,99229.28
2022-08-18T13:51:01.108Z,99228.16
2022-08-18T13:53:31.321Z,99219.44
2022-08-18T13:55:59.589Z,99209.94
2022-08-18T13:58:30.015Z,99208.16
2022-08-18T14:01:39.529Z,99213.16
2022-08-18T14:03:50.709Z,99215.41
2022-08-18T14:06:22.550Z,99212.53
2022-08-18T14:08:52.971Z,99208.66
2022-08-18T14:11:33.051Z,99208.84
2022-08-18T14:14:02.089Z,99212.88
2022-08-18T14:16:29.349Z,99212.88
2022-08-18T14:19:17.785Z,99217.72
2022-08-18T14:22:11.506Z,99206.41
2022-08-18T14:25:00.386Z,99205.13
2022-08-18T14:27:37.537Z,99208.19
2022-08-18T14:30:09.719Z,99209.31
2022-08-18T14:32:48.727Z,99210.75
2022-08-18T14:36:03.837Z,99211.41
2022-08-18T14:38:08.083Z,99209.28
2022-08-18T14:40:43.815Z,99201.66
2022-08-18T14:43:14.649Z,99211.34
2022-08-18T14:45:47.500Z,99204.41
2022-08-18T14:48:22.946Z,99202.97
2022-08-18T14:50:55.334Z,99211.38
2022-08-18T14:53:28.065Z,99204.56
2022-08-18T14:55:57.550Z,99207.66
2022-08-18T14:58:30.039Z,99207.00
2022-08-18T15:01:00.592Z,99215.56
2022-08-18T15:03:31.805Z,99212.34
2022-08-18T15:06:04.799Z,99216.22
2022-08-18T15:08:35.245Z,99210.22
2022-08-18T15:11:11.303Z,99209.41
2022-08-18T15:13:45.106Z,99205.72
2022-08-18T15:16:16.648Z,99204.75
2022-08-18T15:18:47.551Z,99214.78
2022-08-18T15:21:35.075Z,99211.72
2022-08-18T15:24:25.751Z,99223.31
2022-08-18T15:26:57.965Z,99219.31
2022-08-18T15:29:31.349Z,99216.06
2022-08-18T15:32:05.907Z,99229.19
2022-08-18T15:34:47.085Z,99220.44
2022-08-18T15:37:24.225Z,99226.94
2022-08-18T15:40:21.918Z,99233.72
2022-08-18T15:43:10.122Z,99221.94
2022-08-18T15:45:56.456Z,99221.59
2022-08-18T15:48:28.305Z,99226.44
2022-08-18T15:50:55.956Z,99223.97
2022-08-18T15:53:29.970Z,99240.44
2022-08-18T15:55:57.802Z,99232.22
2022-08-18T15:58:26.781Z,99233.66
2022-08-18T16:00:58.913Z,99237.84
2022-08-18T16:03:26.169Z,99237.38
2022-08-18T16:05:55.463Z,99232.34
2022-08-18T16:08:25.468Z,99229.28
2022-08-18T16:10:54.073Z,99224.47
2022-08-18T16:13:22.082Z,99230.09
2022-08-18T16:15:49.861Z,99233.91
2022-08-18T16:18:21.000Z,99225.22
2022-08-18T16:20:48.393Z,99229.72
2022-08-18T16:23:19.973Z,99227.94
2022-08-18T16:25:47.001Z,99235.66
2022-08-18T16:28:13.971Z,99226.16
2022-08-18T16:30:41.556Z,99221.91
2022-08-18T16:33:08.921Z,99225.09
2022-08-18T16:35:37.338Z,99225.88
2022-08-18T16:38:09.345Z,99227.03
2022-08-18T16:40:37.483Z,99227.63
2022-08-18T16:43:05.869Z,99236.31
2022-08-18T16:45:36.065Z,99227.94
2022-08-18T16:48:03.791Z,99233.06
2022-08-18T16:50:30.789Z,99226.72
2022-08-18T16:52:58.027Z,99226.34
2022-08-18T16:55:25.179Z,99225.16
2022-08-18T16:58:15.254Z,99220.31
2022-08-18T17:01:02.781Z,99220.94
2022-08-18T17:03:48.124Z,99221.00
2022-08-18T17:06:18.644Z,99222.78
2022-08-18T17:08:45.706Z,99214.38
2022-08-18T17:11:18.193Z,99209.31
2022-08-18T17:13:48.394Z,99207.84
2022-08-18T17:16:18.202Z,99213.44
2022-08-18T17:18:45.436Z,99212.44
2022-08-18T17:21:20.398Z,99208.53
2022-08-18T17:23:51.787Z,99211.19
2022-08-18T17:26:59.664Z,99214.31
2022-08-18T17:29:43.932Z,99210.28
2022-08-18T17:35:21.071Z,99213.56
2022-08-18T17:38:08.231Z,99209.53
2022-08-18T17:40:51.519Z,99214.28
2022-08-18T17:43:23.164Z,99218.47
2022-08-18T17:46:01.230Z,99214.06
2022-08-18T17:48:32.572Z,99214.22
2022-08-18T17:51:55.099Z,99207.72
2022-08-18T17:54:51.404Z,99211.09
2022-08-18T17:57:29.660Z,99208.16
2022-08-18T18:00:17.257Z,99214.84
2022-08-18T18:02:46.203Z,99217.38
2022-08-18T18:05:18.644Z,99219.59
2022-08-18T18:07:51.379Z,99217.97
2022-08-18T18:11:03.917Z,99226.81
2022-08-18T18:13:32.956Z,99230.94
2022-08-18T18:16:35.283Z,99224.16
2022-08-18T18:19:07.637Z,99227.50
2022-08-18T18:21:56.599Z,99222.31
2022-08-18T18:24:32.757Z,99234.66
2022-08-18T18:26:59.833Z,99231.22
2022-08-18T18:29:35.916Z,99229.13
2022-08-18T18:32:25.011Z,99228.41
2022-08-18T18:35:27.537Z,99231.22
2022-08-18T18:38:01.214Z,99229.91
2022-08-18T18:40:55.724Z,99236.28
2022-08-18T18:43:43.501Z,99246.16
2022-08-18T18:46:18.809Z,99247.59
2022-08-18T18:49:18.889Z,99245.75
2022-08-18T18:52:19.188Z,99247.78
2022-08-18T18:55:01.480Z,99242.13
2022-08-18T18:57:54.247Z,99248.47
2022-08-18T19:00:33.198Z,99255.34
2022-08-18T19:03:18.790Z,99254.31
2022-08-18T19:06:06.248Z,99252.75
2022-08-18T19:08:51.826Z,99252.03
2022-08-18T19:11:30.396Z,99260.59
2022-08-18T19:14:07.728Z,99249.25
2022-08-18T19:16:45.542Z,99255.38
2022-08-18T19:19:38.071Z,99262.56
2022-08-18T19:22:36.483Z,99259.59
2022-08-18T19:25:55.591Z,99256.69
2022-08-18T19:29:12.231Z,99259.69
2022-08-18T19:31:40.869Z,99266.03
2022-08-18T19:34:31.049Z,99264.19
2022-08-18T19:37:31.016Z,99263.97
2022-08-18T19:40:33.538Z,99268.41
2022-08-18T19:43:12.497Z,99261.41
2022-08-18T19:45:57.165Z,99261.97
2022-08-18T19:48:37.307Z,99259.84
2022-08-18T19:51:27.532Z,99256.84
2022-08-18T19:54:23.582Z,99254.44
2022-08-18T19:57:53.162Z,99249.84
2022-08-18T20:00:48.915Z,99261.66
2022-08-18T20:03:39.869Z,99263.88
2022-08-18T20:06:42.359Z,99261.72
2022-08-18T20:09:55.560Z,99253.59
2022-08-18T20:13:13.035Z,99267.81
2022-08-18T20:16:24.937Z,99264.59
2022-08-18T20:18:56.227Z,99267.88
2022-08-18T20:21:41.422Z,99270.38
2022-08-18T20:24:51.088Z,99268.53
2022-08-18T20:27:37.627Z,99268.84
2022-08-18T20:30:39.659Z,99282.22
2022-08-18T20:33:29.851Z,99276.53
2022-08-18T20:36:36.879Z,99277.91
2022-08-18T20:39:40.914Z,99278.50
2022-08-18T20:42:34.400Z,99289.97
2022-08-18T20:45:14.047Z,99293.81
2022-08-18T20:47:55.160Z,99294.41
2022-08-18T20:50:43.456Z,99288.69
2022-08-18T20:53:50.222Z,99283.56
2022-08-18T20:56:48.322Z,99293.13
2022-08-18T20:59:28.629Z,99285.50
2022-08-18T21:02:03.699Z,99280.34
2022-08-18T21:04:49.300Z,99285.53
2022-08-18T21:07:36.135Z,99279.56
2022-08-18T21:10:30.234Z,99279.06
2022-08-18T21:13:04.660Z,99279.31
2022-08-18T21:15:38.150Z,99276.88
2022-08-18T21:18:22.682Z,99278.28
2022-08-18T21:20:52.176Z,99268.50
2022-08-18T21:23:35.964Z,99281.56
2022-08-18T21:26:22.100Z,99283.25
2022-08-18T21:28:54.607Z,99288.16
2022-08-18T21:31:42.542Z,99295.00
2022-08-18T21:34:30.117Z,99296.66
2022-08-18T21:37:00.488Z,99306.53
2022-08-18T21:39:27.455Z,99305.75
2022-08-18T21:41:57.824Z,99300.59
2022-08-18T21:44:43.550Z,99300.06
2022-08-18T21:47:31.784Z,99309.59
2022-08-18T21:50:14.848Z,99315.88
2022-08-18T21:52:55.689Z,99325.94
2022-08-18T21:55:36.313Z,99326.75
2022-08-18T21:58:16.391Z,99333.28
2022-08-18T22:01:04.864Z,99346.66
2022-08-18T22:03:34.305Z,99339.06
2022-08-18T22:06:34.686Z,99340.44
2022-08-18T22:09:29.414Z,99345.09
2022-08-18T22:12:43.132Z,99339.63
2022-08-18T22:15:32.368Z,99329.31
2022-08-18T22:18:02.430Z,99342.91
2022-08-18T22:20:55.018Z,99338.56
2022-08-18T22:24:04.428Z,99330.69
2022-08-18T22:26:37.398Z,99320.91
2022-08-18T22:29:13.402Z,99319.56
2022-08-18T22:31:48.591Z,99321.47
2022-08-18T22:34:27.754Z,99338.59
2022-08-18T22:37:08.318Z,99333.16
2022-08-18T22:39:53.340Z,99348.69
2022-08-18T22:42:26.427Z,99341.31
2022-08-18T22:44:54.205Z,99337.50
2022-08-18T22:47:21.253Z,99335.59
2022-08-18T22:49:48.388Z,99332.88
2022-08-18T22:52:34.092Z,99335.88
2022-08-18T22:55:06.867Z,99335.06
2022-08-18T22:57:38.884Z,99336.97
2022-08-18T23:00:15.561Z,99334.84
2022-08-18T23:02:43.237Z,99340.28
2022-08-18T23:05:11.927Z,99336.75
2022-08-18T23:07:38.947Z,99341.34
2022-08-18T23:10:13.875Z,99344.34
2022-08-18T23:12:44.403Z,99350.91
2022-08-18T23:15:11.720Z,99349.28
2022-08-18T23:17:40.903Z,99370.22
2022-08-18T23:20:17.928Z,99363.97
2022-08-18T23:22:47.994Z,99369.72
2022-08-18T23:25:15.582Z,99363.72
2022-08-18T23:27:42.871Z,99359.91
2022-08-18T23:30:10.957Z,99359.09
2022-08-18T23:32:37.989Z,99369.16
2022-08-18T23:35:05.692Z,99362.91
2022-08-18T23:37:32.920Z,99357.47
2022-08-18T23:40:00.020Z,99352.03
2022-08-18T23:42:27.067Z,99357.47
2022-08-18T23:44:54.087Z,99363.72
2022-08-18T23:47:21.276Z,99363.72
2022-08-18T23:49:48.478Z,99362.91
2022-08-18T23:52:15.572Z,99369.44
2022-08-18T23:54:42.565Z,99366.72
2022-08-18T23:57:09.516Z,99364.28
2022-08-18T23:59:36.597Z,99356.13
